| time (UTC) | temp F | wind direction | speed MPH | gust MPH | rain 1hr in | rain 24hr in | rain mn in | humidity % | barometer mb |
| 20260507150210 | 57 | 5 | 8.0 | 0.0 | 0.00 | 0.00 | 0.09 | 67 | 1013.9 |
| 20260507143212 | 56 | 273 | 11.0 | 0.0 | 0.00 | 0.00 | 0.09 | 70 | 1013.7 |
| 20260507140210 | 56 | 284 | 7.0 | 0.0 | 0.00 | 0.00 | 0.09 | 78 | 1013.9 |
| 20260507133210 | 53 | 236 | 6.0 | 0.0 | 0.00 | 0.00 | 0.09 | 85 | 1014.1 |
| 20260507130210 | 51 | 296 | 6.0 | 0.0 | 0.00 | 0.00 | 0.09 | 87 | 1014.2 |
| 20260507123210 | 53 | 319 | 5.0 | 0.0 | 0.00 | 0.00 | 0.09 | 88 | 1014.0 |
| 20260507120211 | 50 | 317 | 4.0 | 0.0 | 0.00 | 0.00 | 0.09 | 93 | 1014.0 |
| 20260507113210 | 50 | 252 | 13.0 | 0.0 | 0.00 | 0.00 | 0.06 | 90 | 1013.9 |
| 20260507110210 | 51 | 227 | 7.0 | 0.0 | 0.00 | 0.00 | 0.06 | 88 | 1013.8 |
| 20260507103216 | 49 | 168 | 9.0 | 0.0 | 0.00 | 0.00 | 0.06 | 92 | 1013.9 |
| 20260507100212 | 49 | 150 | 6.0 | 0.0 | 0.00 | 0.00 | 0.05 | 92 | 1013.6 |
| 20260507093211 | 50 | 206 | 8.0 | 0.0 | 0.00 | 0.00 | 0.04 | 88 | 1013.4 |
| 20260507090211 | 50 | 221 | 14.0 | 0.0 | 0.00 | 0.00 | 0.04 | 87 | 1013.1 |
| 20260507083212 | 49 | 188 | 9.0 | 0.0 | 0.00 | 0.00 | 0.04 | 91 | 1013.1 |
| 20260507080211 | 49 | 169 | 9.0 | 0.0 | 0.00 | 0.00 | 0.04 | 92 | 1013.0 |
| 20260507073212 | 47 | 261 | 9.0 | 0.0 | 0.00 | 0.00 | 0.04 | 94 | 1012.7 |
| 20260507070212 | 47 | 215 | 8.0 | 0.0 | 0.00 | 0.00 | 0.03 | 95 | 1012.7 |
| 20260507063211 | 46 | 227 | 12.0 | 0.0 | 0.00 | 0.00 | 0.03 | 95 | 1012.5 |
| 20260507060211 | 46 | 215 | 7.0 | 0.0 | 0.00 | 0.00 | 0.02 | 95 | 1012.3 |
| 20260507053211 | 45 | 194 | 9.0 | 0.0 | 0.00 | 0.00 | 0.02 | 95 | 1012.0 |
| 20260507050213 | 45 | 236 | 12.0 | 0.0 | 0.00 | 0.00 | 0.01 | 95 | 1011.6 |
| 20260507043211 | 45 | 274 | 10.0 | 0.0 | 0.00 | 0.00 | 0.00 | 94 | 1011.2 |
| 20260507040216 | 45 | 207 | 10.0 | 0.0 | 0.00 | 0.00 | 0.00 | 94 | 1011.1 |
| 20260507033211 | 45 | 225 | 8.0 | 0.0 | 0.00 | 0.00 | 0.00 | 94 | 1010.9 |
| 20260507030211 | 44 | 251 | 7.0 | 0.0 | 0.00 | 0.00 | 0.00 | 95 | 1010.8 |
| 20260507023211 | 44 | 244 | 7.0 | 0.0 | 0.00 | 0.00 | 0.00 | 95 | 1010.6 |
| 20260507020211 | 44 | 215 | 9.0 | 0.0 | 0.00 | 0.00 | 0.00 | 95 | 1010.5 |
| 20260507013212 | 43 | 202 | 13.0 | 0.0 | 0.00 | 0.00 | 0.00 | 95 | 1010.1 |
| 20260507010211 | 43 | 192 | 9.0 | 0.0 | 0.00 | 0.00 | 0.00 | 95 | 1010.3 |
| 20260507003209 | 44 | 165 | 11.0 | 0.0 | 0.00 | 0.00 | 0.00 | 95 | 1009.8 |
| 20260507000209 | 44 | 209 | 6.0 | 0.0 | 0.00 | 0.00 | 0.00 | 94 | 1009.7 |
| 20260506233209 | 44 | 190 | 6.0 | 0.0 | 0.00 | 0.00 | 0.00 | 93 | 1009.8 |
| 20260506230209 | 45 | 255 | 9.0 | 0.0 | 0.00 | 0.00 | 0.00 | 93 | 1009.7 |
| 20260506223209 | 45 | 229 | 7.0 | 0.0 | 0.00 | 0.00 | 0.00 | 94 | 1009.6 |
| 20260506213209 | 46 | 231 | 7.0 | 0.0 | 0.00 | 0.00 | 0.09 | 93 | 1009.4 |
| 20260506210210 | 46 | 229 | 8.0 | 0.0 | 0.00 | 0.00 | 0.09 | 93 | 1009.3 |
| 20260506203210 | 46 | 181 | 5.0 | 0.0 | 0.00 | 0.00 | 0.09 | 93 | 1009.1 |
| 20260506200210 | 46 | 255 | 12.0 | 0.0 | 0.00 | 0.00 | 0.09 | 93 | 1008.9 |
| 20260506193215 | 46 | 246 | 10.0 | 0.0 | 0.00 | 0.00 | 0.09 | 93 | 1008.7 |
| 20260506190211 | 47 | 188 | 12.0 | 0.0 | 0.00 | 0.00 | 0.09 | 92 | 1008.2 |
| 20260506183209 | 47 | 200 | 12.0 | 0.0 | 0.00 | 0.00 | 0.09 | 91 | 1007.9 |
| 20260506180216 | 48 | 239 | 12.0 | 0.0 | 0.00 | 0.00 | 0.09 | 91 | 1007.8 |
| 20260506173210 | 49 | 188 | 13.0 | 0.0 | 0.00 | 0.00 | 0.09 | 91 | 1007.3 |
| 20260506170215 | 49 | 240 | 7.0 | 0.0 | 0.00 | 0.00 | 0.09 | 93 | 1006.6 |
| 20260506163210 | 48 | 211 | 11.0 | 0.0 | 0.00 | 0.00 | 0.09 | 93 | 1006.9 |
| 20260506160210 | 48 | 232 | 12.0 | 0.0 | 0.00 | 0.00 | 0.09 | 93 | 1006.7 |
| 20260506153210 | 48 | 234 | 19.0 | 0.0 | 0.00 | 0.00 | 0.06 | 92 | 1006.7 |